Time;durP1;ratioP1;P1;durP2;ratioP2;P2;SDS_P1;SDS_P2;PMS_P1;PMS_P2;Temp;Humidity;BMP_temperature;BMP_pressure;BME280_temperature;BME280_humidity;BME280_pressure;Samples;Min_cycle;Max_cycle;Signal;HPM_P1;HPM_P2
2021/07/18 00:00:29;;;;;;;10.23;9.23;;;19.70;99.90;;;;;;2106644;28;20081;-72
2021/07/18 00:01:29;;;;;;;10.80;6.85;;;19.70;99.90;;;;;;2108171;28;20031;-72
2021/07/18 00:02:30;;;;;;;5.60;4.10;;;19.70;99.90;;;;;;2105559;28;20024;-72
2021/07/18 00:03:31;;;;;;;10.63;7.55;;;19.70;99.90;;;;;;2106107;28;20367;-72
2021/07/18 00:04:31;;;;;;;8.52;6.80;;;19.70;99.90;;;;;;2105782;28;20344;-72
2021/07/18 00:05:33;;;;;;;5.05;4.10;;;19.60;99.90;;;;;;2105086;28;20024;-72
2021/07/18 00:06:34;;;;;;;6.80;4.90;;;19.70;99.90;;;;;;2105095;28;20075;-72
2021/07/18 00:07:35;;;;;;;9.55;7.63;;;19.70;99.90;;;;;;2105847;28;20494;-72
2021/07/18 00:08:35;;;;;;;7.70;4.70;;;19.60;99.90;;;;;;2105698;28;20383;-72
2021/07/18 00:09:36;;;;;;;8.82;7.82;;;19.60;99.90;;;;;;2105922;28;20487;-72
2021/07/18 00:10:37;;;;;;;8.90;5.35;;;19.60;99.90;;;;;;2109067;28;20028;-72
2021/07/18 00:11:38;;;;;;;3.33;3.03;;;19.60;99.90;;;;;;2113665;28;20447;-72
2021/07/18 00:12:38;;;;;;;8.63;7.50;;;19.60;99.90;;;;;;2114128;28;20027;-72
2021/07/18 00:13:39;;;;;;;7.38;4.82;;;19.50;99.90;;;;;;2113965;28;20027;-72
2021/07/18 00:14:40;;;;;;;5.68;3.53;;;19.50;99.90;;;;;;2113489;28;20024;-72
2021/07/18 00:15:41;;;;;;;5.45;3.50;;;19.50;99.90;;;;;;2113476;28;20479;-72
2021/07/18 00:16:41;;;;;;;3.17;2.70;;;19.50;99.90;;;;;;2114092;28;20023;-72
2021/07/18 00:17:42;;;;;;;3.90;2.95;;;19.50;99.90;;;;;;2113515;28;20024;-72
2021/07/18 00:18:42;;;;;;;4.20;2.53;;;19.50;99.90;;;;;;2113625;28;20028;-72
2021/07/18 00:19:43;;;;;;;6.18;4.93;;;19.50;99.90;;;;;;2114235;28;20053;-72
2021/07/18 00:20:44;;;;;;;4.13;2.78;;;19.40;99.90;;;;;;2113792;28;20515;-72
2021/07/18 00:21:44;;;;;;;10.57;6.57;;;19.40;99.90;;;;;;2113697;28;20424;-72
2021/07/18 00:22:45;;;;;;;7.30;6.20;;;19.40;99.90;;;;;;2113001;28;20024;-72
2021/07/18 00:23:46;;;;;;;4.60;3.38;;;19.40;99.90;;;;;;2113703;28;20088;-72
2021/07/18 00:24:46;;;;;;;6.70;5.13;;;19.40;99.90;;;;;;2112797;28;20019;-72
2021/07/18 00:25:47;;;;;;;7.93;5.28;;;19.40;99.90;;;;;;2105881;28;20103;-72
2021/07/18 00:26:47;;;;;;;3.72;2.30;;;19.40;99.90;;;;;;2104719;28;20032;-72
2021/07/18 00:27:48;;;;;;;8.50;6.20;;;19.30;99.90;;;;;;2105253;28;20032;-72
2021/07/18 00:28:49;;;;;;;5.03;2.70;;;19.30;99.90;;;;;;2105564;28;20462;-72
2021/07/18 00:29:49;;;;;;;4.28;3.05;;;19.30;99.90;;;;;;2105731;28;20099;-72
2021/07/18 00:30:50;;;;;;;6.15;4.18;;;19.30;99.90;;;;;;2105734;28;20028;-72
2021/07/18 00:31:51;;;;;;;7.20;3.35;;;19.30;99.90;;;;;;2104964;28;20055;-72
2021/07/18 00:32:52;;;;;;;6.15;4.70;;;19.30;99.90;;;;;;2105614;28;20116;-72
2021/07/18 00:33:53;;;;;;;7.13;3.03;;;19.30;99.90;;;;;;2105899;28;20459;-72
2021/07/18 00:34:53;;;;;;;5.43;2.90;;;19.30;99.90;;;;;;2105596;28;20028;-72
2021/07/18 00:35:54;;;;;;;4.70;3.83;;;19.30;99.90;;;;;;2105554;28;20585;-72
2021/07/18 00:36:54;;;;;;;6.38;4.40;;;19.20;99.90;;;;;;2105061;28;20105;-72
2021/07/18 00:37:55;;;;;;;6.68;4.38;;;19.20;99.90;;;;;;2104991;28;20020;-72
2021/07/18 00:38:56;;;;;;;3.20;2.90;;;19.20;99.90;;;;;;2104643;28;20024;-72
2021/07/18 00:39:57;;;;;;;6.70;4.53;;;19.20;99.90;;;;;;2109391;28;20532;-72
2021/07/18 00:40:58;;;;;;;2.80;2.42;;;19.20;99.90;;;;;;2114224;28;20024;-72
2021/07/18 00:41:58;;;;;;;4.82;2.55;;;19.20;99.90;;;;;;2113362;28;20023;-72
2021/07/18 00:42:59;;;;;;;4.53;3.78;;;19.20;99.90;;;;;;2106771;28;20094;-72
2021/07/18 00:43:59;;;;;;;6.45;4.88;;;19.10;99.90;;;;;;2105426;28;20429;-72
2021/07/18 00:45:00;;;;;;;5.38;2.85;;;19.10;99.90;;;;;;2105935;28;20065;-72
2021/07/18 00:46:01;;;;;;;4.47;2.60;;;19.10;99.90;;;;;;2107104;28;20020;-72
2021/07/18 00:47:01;;;;;;;5.03;3.70;;;19.10;99.90;;;;;;2106440;28;20031;-72
2021/07/18 00:48:02;;;;;;;3.92;3.35;;;19.10;99.90;;;;;;2106346;28;20036;-72
2021/07/18 00:49:04;;;;;;;4.25;2.83;;;19.10;99.90;;;;;;2106544;28;20022;-72
2021/07/18 00:50:08;;;;;;;8.18;3.75;;;19.10;99.90;;;;;;2106313;28;20021;-72
2021/07/18 00:51:08;;;;;;;4.15;3.47;;;19.10;99.90;;;;;;2107333;28;20032;-72
2021/07/18 00:52:09;;;;;;;9.25;4.68;;;19.10;99.90;;;;;;2105648;28;20027;-72
2021/07/18 00:53:11;;;;;;;4.45;2.63;;;19.00;99.90;;;;;;2106262;28;20082;-72
2021/07/18 00:54:12;;;;;;;3.10;2.80;;;19.10;99.90;;;;;;2108851;28;20024;-72
2021/07/18 00:55:14;;;;;;;5.90;4.82;;;19.00;99.90;;;;;;2115504;28;20106;-72
2021/07/18 00:56:15;;;;;;;3.55;2.50;;;19.00;99.90;;;;;;2109658;28;20425;-72
2021/07/18 00:57:16;;;;;;;4.05;3.28;;;19.00;99.90;;;;;;2107115;28;20028;-72
2021/07/18 00:58:17;;;;;;;4.97;2.90;;;19.00;99.90;;;;;;2107054;28;20036;-72
2021/07/18 00:59:18;;;;;;;4.28;3.35;;;19.00;99.90;;;;;;2107126;28;20028;-72
2021/07/18 01:00:19;;;;;;;5.32;3.30;;;19.00;99.90;;;;;;2107676;28;20024;-72
2021/07/18 01:01:21;;;;;;;5.53;2.83;;;18.90;99.90;;;;;;2106903;28;20035;-72
2021/07/18 01:02:22;;;;;;;4.95;3.28;;;18.90;99.90;;;;;;2105679;28;20028;-72
2021/07/18 01:03:23;;;;;;;4.05;3.17;;;18.90;99.90;;;;;;2106557;28;20103;-72
2021/07/18 01:04:23;;;;;;;2.45;2.25;;;18.90;99.90;;;;;;2107055;28;20039;-72
2021/07/18 01:05:24;;;;;;;3.88;2.20;;;18.90;99.90;;;;;;2107069;28;20052;-72
2021/07/18 01:06:25;;;;;;;5.40;2.38;;;18.90;99.90;;;;;;2107075;28;20414;-72
2021/07/18 01:07:26;;;;;;;7.20;3.00;;;18.90;99.90;;;;;;2107051;28;20027;-72
2021/07/18 01:08:27;;;;;;;3.20;2.33;;;18.90;99.90;;;;;;2106725;28;20020;-72
2021/07/18 01:09:27;;;;;;;3.17;2.83;;;18.90;99.90;;;;;;2114834;28;20027;-72
2021/07/18 01:10:28;;;;;;;8.90;2.78;;;18.80;99.90;;;;;;2115507;28;21666;-72
2021/07/18 01:11:29;;;;;;;7.65;2.70;;;18.90;99.90;;;;;;2114922;28;20485;-72
2021/07/18 01:12:31;;;;;;;5.38;3.13;;;18.80;99.90;;;;;;2115160;28;20549;-72
2021/07/18 01:13:31;;;;;;;3.40;2.20;;;18.80;99.90;;;;;;2115258;28;20424;-72
2021/07/18 01:14:32;;;;;;;4.53;2.97;;;18.80;99.90;;;;;;2115548;28;20562;-72
2021/07/18 01:15:33;;;;;;;5.78;3.30;;;18.70;99.90;;;;;;2115247;28;20031;-72
2021/07/18 01:16:33;;;;;;;3.92;2.60;;;18.70;99.90;;;;;;2115590;28;20031;-72
2021/07/18 01:17:37;;;;;;;3.33;2.63;;;18.70;99.90;;;;;;2115347;27;20016;-72
2021/07/18 01:18:41;;;;;;;3.72;2.65;;;18.70;99.90;;;;;;2115762;28;20046;-72
2021/07/18 01:19:41;;;;;;;7.80;3.17;;;18.70;99.90;;;;;;2114607;28;20457;-72
2021/07/18 01:20:44;;;;;;;4.57;3.08;;;18.70;99.90;;;;;;2114506;28;20020;-72
2021/07/18 01:21:52;;;;;;;4.53;2.70;;;18.70;99.90;;;;;;2106225;28;20479;-72
2021/07/18 01:22:52;;;;;;;4.47;3.00;;;18.70;99.90;;;;;;2106302;28;20047;-72
2021/07/18 01:23:53;;;;;;;2.40;2.03;;;18.60;99.90;;;;;;2104532;28;20096;-72
2021/07/18 01:24:55;;;;;;;5.55;2.50;;;18.70;99.90;;;;;;2103361;28;20843;-72
2021/07/18 01:25:55;;;;;;;6.00;3.33;;;18.60;99.90;;;;;;2108344;28;20103;-73
2021/07/18 01:26:57;;;;;;;2.95;2.63;;;18.60;99.90;;;;;;2108328;28;20020;-72
2021/07/18 01:27:57;;;;;;;4.82;2.72;;;18.60;99.90;;;;;;2113382;28;20023;-72
2021/07/18 01:28:58;;;;;;;2.50;2.28;;;18.60;99.90;;;;;;2107038;28;20019;-72
2021/07/18 01:30:00;;;;;;;7.75;3.25;;;18.60;99.90;;;;;;2106707;28;20058;-72
2021/07/18 01:31:00;;;;;;;4.28;2.35;;;18.60;99.90;;;;;;2106875;28;20031;-72
2021/07/18 01:32:02;;;;;;;3.22;2.22;;;18.60;99.90;;;;;;2106916;28;20047;-71
2021/07/18 01:33:03;;;;;;;2.97;2.55;;;18.60;99.90;;;;;;2106794;28;20530;-71
2021/07/18 01:34:04;;;;;;;5.22;2.85;;;18.50;99.90;;;;;;2106545;28;20099;-71
2021/07/18 01:35:05;;;;;;;3.42;2.45;;;18.50;99.90;;;;;;2106841;28;20036;-71
2021/07/18 01:36:06;;;;;;;7.50;2.20;;;18.50;99.90;;;;;;2114101;28;20031;-71
2021/07/18 01:37:06;;;;;;;5.22;2.20;;;18.50;99.90;;;;;;2106236;28;20061;-71
2021/07/18 01:38:09;;;;;;;3.90;2.70;;;18.50;99.90;;;;;;2101525;28;20091;-71
2021/07/18 01:39:11;;;;;;;5.43;2.47;;;18.50;99.90;;;;;;2106728;28;20039;-71
2021/07/18 01:40:12;;;;;;;3.72;3.05;;;18.50;99.90;;;;;;2106294;28;20064;-71
2021/07/18 01:41:12;;;;;;;4.10;2.60;;;18.40;99.90;;;;;;2106700;28;20016;-71
2021/07/18 01:42:13;;;;;;;4.78;3.08;;;18.40;99.90;;;;;;2105858;28;20012;-71
2021/07/18 01:43:15;;;;;;;3.00;2.35;;;18.40;99.90;;;;;;2106674;28;20484;-71
2021/07/18 01:44:16;;;;;;;3.08;2.60;;;18.40;99.90;;;;;;2106718;28;20115;-71
2021/07/18 01:45:16;;;;;;;2.97;2.70;;;18.40;99.90;;;;;;2106780;28;20032;-71
2021/07/18 01:46:17;;;;;;;2.58;2.38;;;18.40;99.90;;;;;;2106647;28;20095;-71
2021/07/18 01:47:19;;;;;;;4.82;2.55;;;18.40;99.90;;;;;;2106791;28;20027;-71
2021/07/18 01:48:19;;;;;;;4.50;2.70;;;18.40;99.90;;;;;;2106271;28;20106;-71
2021/07/18 01:49:20;;;;;;;3.08;2.80;;;18.40;99.90;;;;;;2106827;28;20024;-71
2021/07/18 01:50:21;;;;;;;3.33;2.58;;;18.30;99.90;;;;;;2106807;28;20521;-71
2021/07/18 01:51:29;;;;;;;2.90;2.35;;;18.30;99.90;;;;;;2106326;28;20024;-71
2021/07/18 01:52:29;;;;;;;3.53;2.60;;;18.30;99.90;;;;;;2104526;28;20015;-71
2021/07/18 01:53:30;;;;;;;2.78;2.33;;;18.30;99.90;;;;;;2106554;28;20028;-71
2021/07/18 01:54:31;;;;;;;4.72;2.63;;;18.30;99.90;;;;;;2106427;28;20121;-71
2021/07/18 01:55:32;;;;;;;4.65;2.53;;;18.30;99.90;;;;;;2106483;28;20024;-71
2021/07/18 01:56:33;;;;;;;2.95;2.28;;;18.30;99.90;;;;;;2105977;28;20035;-71
2021/07/18 01:57:34;;;;;;;2.55;2.35;;;18.30;99.90;;;;;;2106159;28;20462;-71
2021/07/18 01:58:34;;;;;;;5.35;2.72;;;18.30;99.90;;;;;;2106535;28;20031;-71
2021/07/18 01:59:35;;;;;;;2.88;2.33;;;18.30;99.90;;;;;;2106560;28;20498;-71
2021/07/18 02:00:35;;;;;;;2.67;2.47;;;18.20;99.90;;;;;;2105522;28;20020;-71
2021/07/18 02:01:36;;;;;;;3.92;2.60;;;18.20;99.90;;;;;;2105594;28;20056;-71
2021/07/18 02:02:39;;;;;;;3.60;2.80;;;18.20;99.90;;;;;;2105133;28;20087;-70
2021/07/18 02:03:40;;;;;;;4.00;2.78;;;18.20;99.90;;;;;;2106160;28;20028;-71
2021/07/18 02:04:40;;;;;;;5.32;2.85;;;18.20;99.90;;;;;;2106351;28;20034;-71
2021/07/18 02:05:41;;;;;;;3.40;2.35;;;18.20;99.90;;;;;;2106677;28;20052;-71
2021/07/18 02:06:41;;;;;;;2.70;2.47;;;18.20;99.90;;;;;;2106522;28;20028;-71
2021/07/18 02:07:46;;;;;;;4.97;2.22;;;18.20;99.90;;;;;;2106656;28;20027;-71
2021/07/18 02:08:47;;;;;;;4.53;2.70;;;18.20;99.90;;;;;;2106347;28;20032;-71
2021/07/18 02:09:48;;;;;;;4.90;2.67;;;18.20;99.90;;;;;;2106440;28;20051;-71
2021/07/18 02:10:49;;;;;;;3.85;2.75;;;18.20;99.90;;;;;;2105493;28;20587;-71
2021/07/18 02:11:49;;;;;;;3.38;2.28;;;18.10;99.90;;;;;;2097245;28;20032;-71
2021/07/18 02:12:50;;;;;;;3.40;2.00;;;18.10;99.90;;;;;;2113791;28;20020;-71
2021/07/18 02:13:53;;;;;;;3.70;2.47;;;18.10;99.90;;;;;;2114345;28;20063;-71
2021/07/18 02:14:53;;;;;;;3.53;2.30;;;18.10;99.90;;;;;;2114734;28;20019;-71
2021/07/18 02:15:57;;;;;;;2.88;2.47;;;18.10;99.90;;;;;;2115068;28;20044;-71
2021/07/18 02:16:58;;;;;;;4.85;2.30;;;18.10;99.90;;;;;;2114716;28;20092;-71
2021/07/18 02:17:58;;;;;;;4.18;2.30;;;18.10;99.90;;;;;;2114748;28;20478;-71
2021/07/18 02:19:08;;;;;;;4.63;2.50;;;18.10;99.90;;;;;;2114760;28;20028;-71
2021/07/18 02:20:11;;;;;;;4.30;2.40;;;18.10;99.90;;;;;;2114820;28;20114;-71
2021/07/18 02:21:12;;;;;;;3.65;2.33;;;18.10;99.90;;;;;;2114750;27;20023;-71
2021/07/18 02:22:13;;;;;;;3.95;2.55;;;18.00;99.90;;;;;;2114359;28;20016;-71
2021/07/18 02:23:14;;;;;;;3.05;2.45;;;18.00;99.90;;;;;;2114715;28;20027;-71
2021/07/18 02:24:14;;;;;;;4.53;2.67;;;18.00;99.90;;;;;;2113403;28;20024;-71
2021/07/18 02:25:17;;;;;;;3.28;2.75;;;18.00;99.90;;;;;;2105552;28;20024;-71
2021/07/18 02:26:17;;;;;;;3.50;2.80;;;18.00;99.90;;;;;;2106497;28;20455;-71
2021/07/18 02:27:18;;;;;;;3.80;2.70;;;18.00;99.90;;;;;;2106304;28;20484;-71
2021/07/18 02:28:18;;;;;;;3.38;2.42;;;18.00;99.90;;;;;;2105686;28;20034;-71
2021/07/18 02:29:19;;;;;;;2.97;2.28;;;17.90;99.90;;;;;;2105721;28;20028;-71
2021/07/18 02:30:22;;;;;;;2.75;2.17;;;18.00;99.90;;;;;;2105777;28;20024;-71
2021/07/18 02:31:23;;;;;;;4.20;2.50;;;18.00;99.90;;;;;;2105384;28;20483;-71
2021/07/18 02:32:24;;;;;;;2.53;2.30;;;17.90;99.90;;;;;;2105961;28;20024;-71
2021/07/18 02:33:24;;;;;;;3.67;2.40;;;17.90;99.90;;;;;;2106245;28;20078;-71
2021/07/18 02:34:25;;;;;;;4.90;2.50;;;17.90;99.90;;;;;;2105605;28;20066;-71
2021/07/18 02:35:26;;;;;;;3.25;2.63;;;17.90;99.90;;;;;;2105510;28;20024;-71
2021/07/18 02:36:26;;;;;;;4.93;2.28;;;17.90;99.90;;;;;;2106297;28;20060;-71
2021/07/18 02:37:27;;;;;;;6.05;2.80;;;17.90;99.90;;;;;;2106294;28;20036;-71
2021/07/18 02:38:28;;;;;;;3.20;2.38;;;17.90;99.90;;;;;;2106057;28;20032;-71
2021/07/18 02:39:28;;;;;;;2.90;2.38;;;17.90;99.90;;;;;;2107021;28;20387;-71
2021/07/18 02:40:29;;;;;;;4.07;2.70;;;17.90;99.90;;;;;;2114616;28;20046;-71
2021/07/18 02:41:30;;;;;;;8.18;2.65;;;17.80;99.90;;;;;;2114256;28;20026;-71
2021/07/18 02:42:31;;;;;;;3.55;2.58;;;17.80;99.90;;;;;;2114813;28;20019;-71
2021/07/18 02:43:31;;;;;;;3.78;2.33;;;17.80;99.90;;;;;;2114687;28;20027;-71
2021/07/18 02:44:32;;;;;;;3.75;2.35;;;17.80;99.90;;;;;;2114797;28;20099;-71
2021/07/18 02:45:33;;;;;;;3.13;2.70;;;17.80;99.90;;;;;;2114795;28;20095;-71
2021/07/18 02:46:34;;;;;;;6.13;2.75;;;17.80;99.90;;;;;;2109557;28;20432;-71
2021/07/18 02:47:35;;;;;;;3.72;2.40;;;17.80;99.90;;;;;;2106182;28;20044;-71
2021/07/18 02:48:37;;;;;;;5.10;3.10;;;17.80;99.90;;;;;;2106077;28;20020;-71
2021/07/18 02:49:37;;;;;;;4.82;2.50;;;17.80;99.90;;;;;;2106280;28;20028;-71
2021/07/18 02:50:38;;;;;;;3.35;2.25;;;17.80;99.90;;;;;;2106199;28;20479;-72
2021/07/18 02:51:39;;;;;;;6.18;2.83;;;17.80;99.90;;;;;;2105719;28;20042;-72
2021/07/18 02:52:41;;;;;;;4.72;3.20;;;17.80;99.90;;;;;;2106156;28;20021;-72
2021/07/18 02:53:41;;;;;;;4.88;2.30;;;17.70;99.90;;;;;;2106310;28;20024;-72
2021/07/18 02:54:42;;;;;;;4.05;2.28;;;17.70;99.90;;;;;;2106072;28;20024;-72
2021/07/18 02:55:43;;;;;;;3.35;2.25;;;17.70;99.90;;;;;;2106155;28;20016;-71
2021/07/18 02:56:43;;;;;;;2.70;2.40;;;17.70;99.90;;;;;;2106204;28;20020;-71
2021/07/18 02:57:44;;;;;;;2.63;2.40;;;17.70;99.90;;;;;;2106197;28;20097;-71
2021/07/18 02:58:44;;;;;;;3.80;2.08;;;17.70;99.90;;;;;;2105874;28;20024;-72
2021/07/18 02:59:45;;;;;;;3.45;2.55;;;17.70;99.90;;;;;;2106193;28;20547;-72
2021/07/18 03:00:46;;;;;;;6.45;2.65;;;17.70;99.90;;;;;;2107643;28;20099;-72
2021/07/18 03:01:46;;;;;;;5.03;2.70;;;17.70;99.90;;;;;;2113260;28;20074;-72
2021/07/18 03:02:48;;;;;;;4.55;2.55;;;17.70;99.90;;;;;;2114367;28;20023;-72
2021/07/18 03:03:48;;;;;;;3.40;2.10;;;17.70;99.90;;;;;;2114601;28;20378;-72
2021/07/18 03:04:49;;;;;;;5.22;2.50;;;17.70;99.90;;;;;;2114451;28;20020;-72
2021/07/18 03:05:49;;;;;;;3.33;2.50;;;17.60;99.90;;;;;;2114494;28;20368;-71
2021/07/18 03:06:50;;;;;;;4.28;2.60;;;17.60;99.90;;;;;;2114238;28;20047;-71
2021/07/18 03:07:51;;;;;;;3.15;2.78;;;17.60;99.90;;;;;;2114540;28;20023;-71
2021/07/18 03:08:51;;;;;;;2.70;2.50;;;17.60;99.90;;;;;;2113589;28;20028;-71
2021/07/18 03:09:52;;;;;;;3.85;2.28;;;17.60;99.90;;;;;;2114574;28;20074;-71
2021/07/18 03:10:52;;;;;;;5.40;2.50;;;17.60;99.90;;;;;;2114249;28;20050;-71
2021/07/18 03:11:53;;;;;;;5.72;2.53;;;17.60;99.90;;;;;;2113816;28;20039;-71
2021/07/18 03:12:54;;;;;;;2.67;2.47;;;17.60;99.90;;;;;;2114340;28;20066;-71
2021/07/18 03:13:54;;;;;;;2.70;2.40;;;17.60;99.90;;;;;;2108669;28;20028;-71
2021/07/18 03:14:55;;;;;;;2.60;2.30;;;17.60;99.90;;;;;;2105195;28;20027;-71
2021/07/18 03:15:55;;;;;;;2.80;2.47;;;17.60;99.90;;;;;;2106171;28;20055;-71
2021/07/18 03:16:56;;;;;;;3.40;3.08;;;17.60;99.90;;;;;;2105881;28;20420;-71
2021/07/18 03:17:56;;;;;;;3.10;2.70;;;17.60;99.90;;;;;;2106284;28;20034;-72
2021/07/18 03:18:57;;;;;;;3.40;2.47;;;17.60;99.90;;;;;;2106009;28;20475;-72
2021/07/18 03:19:59;;;;;;;2.67;2.47;;;17.50;99.90;;;;;;2105881;28;20031;-71
2021/07/18 03:21:00;;;;;;;3.05;2.70;;;17.50;99.90;;;;;;2106072;28;20041;-71
2021/07/18 03:22:00;;;;;;;5.80;2.42;;;17.50;99.90;;;;;;2105383;28;20023;-71
2021/07/18 03:23:01;;;;;;;4.85;2.47;;;17.50;99.90;;;;;;2105848;28;20048;-71
2021/07/18 03:24:03;;;;;;;5.78;2.97;;;17.50;99.90;;;;;;2105960;28;20020;-71
2021/07/18 03:25:06;;;;;;;3.08;2.38;;;17.50;99.90;;;;;;2106089;28;20540;-71
2021/07/18 03:26:06;;;;;;;5.13;2.53;;;17.50;99.90;;;;;;2105869;28;20023;-71
2021/07/18 03:27:07;;;;;;;3.83;2.65;;;17.50;99.90;;;;;;2105569;28;20024;-71
2021/07/18 03:28:07;;;;;;;3.47;3.17;;;17.50;99.90;;;;;;2107010;28;20098;-71
2021/07/18 03:29:08;;;;;;;3.00;2.80;;;17.50;99.90;;;;;;2114505;28;20545;-71
2021/07/18 03:30:11;;;;;;;6.00;2.67;;;17.50;99.90;;;;;;2113473;28;20538;-71
2021/07/18 03:31:13;;;;;;;4.97;2.55;;;17.40;99.90;;;;;;2113818;28;20033;-71
2021/07/18 03:32:14;;;;;;;4.07;2.40;;;17.40;99.90;;;;;;2113021;28;20097;-71
2021/07/18 03:33:14;;;;;;;2.60;2.25;;;17.40;99.90;;;;;;2113850;28;20120;-71
2021/07/18 03:34:15;;;;;;;4.03;2.88;;;17.40;99.90;;;;;;2114169;28;20379;-71
2021/07/18 03:35:16;;;;;;;2.47;2.28;;;17.40;99.90;;;;;;2114350;28;20024;-71
2021/07/18 03:36:17;;;;;;;3.40;2.58;;;17.40;99.90;;;;;;2111165;28;20024;-71
2021/07/18 03:37:17;;;;;;;2.72;2.53;;;17.40;99.90;;;;;;2097746;28;20032;-71
2021/07/18 03:38:19;;;;;;;2.30;2.10;;;17.40;99.90;;;;;;2102172;28;20363;-71
2021/07/18 03:39:20;;;;;;;5.20;2.72;;;17.40;99.90;;;;;;2106059;28;20028;-71
2021/07/18 03:40:20;;;;;;;4.30;3.30;;;17.40;99.90;;;;;;2105583;28;20051;-71
2021/07/18 03:41:21;;;;;;;2.90;2.60;;;17.40;99.90;;;;;;2109303;28;20044;-71
2021/07/18 03:42:22;;;;;;;3.22;2.80;;;17.40;99.90;;;;;;2109782;28;20052;-71
2021/07/18 03:43:22;;;;;;;4.55;2.60;;;17.40;99.90;;;;;;2106057;28;20506;-71
2021/07/18 03:44:23;;;;;;;4.30;2.67;;;17.40;99.90;;;;;;2105546;28;20027;-71
2021/07/18 03:45:23;;;;;;;3.78;2.72;;;17.40;99.90;;;;;;2105942;28;20047;-71
2021/07/18 03:46:24;;;;;;;2.30;2.10;;;17.40;99.90;;;;;;2105905;28;20039;-71
2021/07/18 03:47:24;;;;;;;2.28;2.15;;;17.40;99.90;;;;;;2106014;28;20108;-71
2021/07/18 03:48:25;;;;;;;4.07;2.50;;;17.30;99.90;;;;;;2105886;28;20387;-71
2021/07/18 03:49:26;;;;;;;7.15;2.58;;;17.30;99.90;;;;;;2105290;28;20020;-71
2021/07/18 03:50:26;;;;;;;4.53;2.53;;;17.30;99.90;;;;;;2105407;28;20032;-71
2021/07/18 03:51:27;;;;;;;5.13;2.72;;;17.30;99.90;;;;;;2104715;28;20398;-71
2021/07/18 03:52:27;;;;;;;3.65;2.75;;;17.30;99.90;;;;;;2105143;28;20099;-72
2021/07/18 03:53:28;;;;;;;2.75;2.55;;;17.30;99.90;;;;;;2113184;28;20088;-72
2021/07/18 03:54:28;;;;;;;4.60;2.88;;;17.30;99.90;;;;;;2108971;28;20044;-72
2021/07/18 03:55:29;;;;;;;2.38;2.20;;;17.30;99.90;;;;;;2097064;28;20044;-72
2021/07/18 03:56:29;;;;;;;2.75;2.55;;;17.30;99.90;;;;;;2104711;28;20028;-72
2021/07/18 03:57:30;;;;;;;6.18;3.15;;;17.30;99.90;;;;;;2105774;28;20530;-72
2021/07/18 03:58:30;;;;;;;5.50;3.20;;;17.30;99.90;;;;;;2105878;28;20514;-72
2021/07/18 03:59:31;;;;;;;2.92;2.30;;;17.30;99.90;;;;;;2105878;28;20084;-72
2021/07/18 04:00:32;;;;;;;3.40;3.10;;;17.30;99.90;;;;;;2105803;28;20046;-72
2021/07/18 04:01:32;;;;;;;6.57;3.20;;;17.30;99.90;;;;;;2104576;28;20016;-72
2021/07/18 04:02:33;;;;;;;2.67;2.47;;;17.30;99.90;;;;;;2104984;28;20024;-72
2021/07/18 04:03:33;;;;;;;5.90;2.80;;;17.20;99.90;;;;;;2105175;28;20094;-72
2021/07/18 04:04:34;;;;;;;3.63;2.58;;;17.30;99.90;;;;;;2105995;28;20471;-72
2021/07/18 04:05:34;;;;;;;4.38;2.90;;;17.30;99.90;;;;;;2105464;28;20024;-72
2021/07/18 04:06:35;;;;;;;3.25;2.88;;;17.30;99.90;;;;;;2105923;28;20032;-72
2021/07/18 04:07:35;;;;;;;3.17;2.88;;;17.30;99.90;;;;;;2111296;28;20106;-72
2021/07/18 04:08:36;;;;;;;3.53;2.85;;;17.30;99.90;;;;;;2113707;28;20102;-72
2021/07/18 04:09:36;;;;;;;4.55;2.80;;;17.30;99.90;;;;;;2114167;28;20129;-72
2021/07/18 04:10:37;;;;;;;2.92;2.60;;;17.30;99.90;;;;;;2113464;28;20030;-72
2021/07/18 04:11:38;;;;;;;4.65;2.90;;;17.30;99.90;;;;;;2112993;28;20023;-72
2021/07/18 04:12:38;;;;;;;5.35;3.17;;;17.30;99.90;;;;;;2114138;28;20016;-72
2021/07/18 04:13:39;;;;;;;4.15;2.80;;;17.30;99.90;;;;;;2114115;28;20020;-72
2021/07/18 04:14:40;;;;;;;4.22;2.63;;;17.30;99.90;;;;;;2114490;28;20023;-72
2021/07/18 04:15:40;;;;;;;3.25;2.97;;;17.40;99.90;;;;;;2114145;28;20027;-72
2021/07/18 04:16:41;;;;;;;2.85;2.60;;;17.40;99.90;;;;;;2114328;28;20020;-72
2021/07/18 04:17:41;;;;;;;3.28;2.25;;;17.40;99.90;;;;;;2113953;28;20499;-72
2021/07/18 04:18:42;;;;;;;2.40;2.20;;;17.40;99.90;;;;;;2113351;28;20107;-72
2021/07/18 04:19:42;;;;;;;2.75;2.38;;;17.40;99.90;;;;;;2107300;28;20111;-72
2021/07/18 04:20:43;;;;;;;4.05;2.45;;;17.40;99.90;;;;;;2106464;28;20567;-72
2021/07/18 04:21:43;;;;;;;4.63;2.85;;;17.40;99.90;;;;;;2106274;28;20016;-72
2021/07/18 04:22:44;;;;;;;4.30;2.67;;;17.40;99.90;;;;;;2107573;28;20101;-72
2021/07/18 04:23:48;;;;;;;3.55;2.60;;;17.40;99.90;;;;;;2107353;28;20024;-71
2021/07/18 04:24:48;;;;;;;3.17;2.88;;;17.40;99.90;;;;;;2107531;28;20048;-71
2021/07/18 04:25:49;;;;;;;3.92;2.78;;;17.50;99.90;;;;;;2107309;28;20020;-71
2021/07/18 04:26:50;;;;;;;3.15;2.67;;;17.50;99.90;;;;;;2107387;28;20032;-72
2021/07/18 04:27:50;;;;;;;4.45;3.00;;;17.50;99.90;;;;;;2107102;28;20185;-71
2021/07/18 04:28:51;;;;;;;3.47;3.15;;;17.50;99.90;;;;;;2107465;28;20378;-71
2021/07/18 04:29:51;;;;;;;3.67;3.20;;;17.50;99.90;;;;;;2107255;28;20674;-71
2021/07/18 04:30:52;;;;;;;3.67;2.95;;;17.50;99.90;;;;;;2107688;28;20526;-71
2021/07/18 04:31:52;;;;;;;5.68;2.97;;;17.50;99.90;;;;;;2106751;28;20099;-71
2021/07/18 04:32:53;;;;;;;4.10;2.88;;;17.60;99.90;;;;;;2107643;28;20035;-71
2021/07/18 04:33:53;;;;;;;4.40;3.13;;;17.60;99.90;;;;;;2116000;28;20028;-72
2021/07/18 04:34:54;;;;;;;3.45;2.75;;;17.70;99.90;;;;;;2114868;28;20114;-72
2021/07/18 04:35:54;;;;;;;4.20;3.45;;;17.90;99.90;;;;;;2111645;28;20394;-72
2021/07/18 04:36:55;;;;;;;3.47;2.90;;;18.00;99.90;;;;;;2099450;28;20477;-72
2021/07/18 04:37:56;;;;;;;4.47;3.40;;;18.20;99.90;;;;;;2098243;28;20483;-72
2021/07/18 04:38:58;;;;;;;7.10;3.88;;;18.30;99.90;;;;;;2106376;28;20077;-72
2021/07/18 04:39:58;;;;;;;4.95;3.92;;;18.40;99.90;;;;;;2103927;28;20091;-72
2021/07/18 04:40:59;;;;;;;5.57;3.75;;;18.50;99.90;;;;;;2106653;28;20066;-72
2021/07/18 04:42:00;;;;;;;5.20;3.20;;;18.50;99.90;;;;;;2107015;28;20046;-72
2021/07/18 04:43:03;;;;;;;5.47;2.88;;;18.50;99.90;;;;;;2106321;28;20012;-72
2021/07/18 04:44:05;;;;;;;4.30;3.17;;;18.60;99.90;;;;;;2106714;28;20101;-72
2021/07/18 04:45:06;;;;;;;5.55;3.20;;;18.50;99.90;;;;;;2107251;28;20428;-72
2021/07/18 04:46:08;;;;;;;3.45;3.08;;;18.50;99.90;;;;;;2107213;28;20016;-72
2021/07/18 04:47:08;;;;;;;4.38;3.60;;;18.50;99.90;;;;;;2107249;28;20016;-72
2021/07/18 04:48:09;;;;;;;4.82;3.17;;;18.60;99.90;;;;;;2107355;28;20027;-72
2021/07/18 04:49:10;;;;;;;3.38;3.08;;;18.60;99.90;;;;;;2107115;28;20020;-72
2021/07/18 04:50:11;;;;;;;6.07;3.47;;;18.60;99.90;;;;;;2107216;28;20024;-72
2021/07/18 04:51:11;;;;;;;4.60;3.28;;;18.60;99.90;;;;;;2107172;28;20455;-72
2021/07/18 04:52:12;;;;;;;9.55;3.15;;;18.70;99.90;;;;;;2106870;28;20536;-72
2021/07/18 04:53:13;;;;;;;5.93;3.55;;;18.70;99.90;;;;;;2107209;28;20028;-72
2021/07/18 04:54:13;;;;;;;10.25;3.85;;;18.70;99.90;;;;;;2106335;28;20024;-72
2021/07/18 04:55:15;;;;;;;4.50;3.80;;;18.80;99.90;;;;;;2106557;28;20028;-72
2021/07/18 04:56:16;;;;;;;5.93;4.10;;;18.80;99.90;;;;;;2106383;28;20043;-72
2021/07/18 04:57:16;;;;;;;4.45;3.92;;;18.90;99.90;;;;;;2106389;28;20085;-72
2021/07/18 04:58:17;;;;;;;7.57;3.95;;;19.00;99.90;;;;;;2107192;28;20032;-72
2021/07/18 04:59:19;;;;;;;6.18;3.78;;;19.00;99.90;;;;;;2107067;28;20474;-72
2021/07/18 05:00:21;;;;;;;4.43;3.63;;;19.10;99.90;;;;;;2106770;28;20073;-72
2021/07/18 05:01:21;;;;;;;4.50;3.83;;;19.20;99.90;;;;;;2106845;28;20039;-72
2021/07/18 05:02:22;;;;;;;5.78;4.10;;;19.20;99.90;;;;;;2106794;28;20036;-72
2021/07/18 05:03:23;;;;;;;4.93;3.83;;;19.30;99.90;;;;;;2106972;28;20025;-71
2021/07/18 05:04:23;;;;;;;5.57;3.38;;;19.40;99.90;;;;;;2106267;28;20031;-71
2021/07/18 05:05:24;;;;;;;5.70;4.03;;;19.40;99.90;;;;;;2106210;28;20424;-71
2021/07/18 05:06:24;;;;;;;6.13;4.13;;;19.50;99.90;;;;;;2107323;28;20475;-71
2021/07/18 05:07:25;;;;;;;4.13;3.65;;;19.60;99.90;;;;;;2106963;28;20035;-71
2021/07/18 05:08:25;;;;;;;6.05;3.88;;;19.70;99.90;;;;;;2114956;28;20051;-71
2021/07/18 05:09:27;;;;;;;9.07;4.70;;;19.80;99.90;;;;;;2114460;28;20024;-71
2021/07/18 05:10:29;;;;;;;5.60;3.55;;;19.80;99.90;;;;;;2106518;28;20382;-71
2021/07/18 05:11:29;;;;;;;4.20;3.63;;;19.90;99.90;;;;;;2106098;28;20021;-72
2021/07/18 05:12:30;;;;;;;9.32;4.45;;;20.00;99.90;;;;;;2106627;28;20039;-72
2021/07/18 05:13:30;;;;;;;4.32;3.95;;;20.00;99.90;;;;;;2107416;28;20063;-72
2021/07/18 05:14:31;;;;;;;4.63;4.07;;;20.10;99.90;;;;;;2115482;28;20032;-72
2021/07/18 05:15:32;;;;;;;5.95;4.03;;;20.20;99.90;;;;;;2115561;28;20482;-72
2021/07/18 05:16:33;;;;;;;6.63;4.45;;;20.30;99.90;;;;;;2114753;28;20455;-72